South Byron, Wisconsin
Current Conditions -  °F | °C
As of 5:53 AM on Monday 20 Oct 2014 (Local Time) from KFLD Reporting Station
Scattered Clouds Scattered Clouds  
Wind Chill: 40°   Ceiling: Unl
Heat Index: 43°   Visibility: 10mi
Dew Point: 40°   Wind: 5mph
Humidity: 89%   Direction: 230°SW
Pressure: 29.79"   Gusts: NA
Location:  43.6092°N, 88.5191°W
Report Text: KFLD 201053Z AUTO 23004KT 10SM SCT065 06/04 A2979 RMK AO2 SLP090 T00610044
Loading
Personal Weather Stations






























Interactive Weather Map
Tropical Storm Tracking
New forecast layout! Learn more

10-Day Weather Forecast

Advertisements
Track Severe Weather on mobile